Time;durP1;ratioP1;P1;durP2;ratioP2;P2;SDS_P1;SDS_P2;PMS_P1;PMS_P2;Temp;Humidity;BMP_temperature;BMP_pressure;BME280_temperature;BME280_humidity;BME280_pressure;Samples;Min_cycle;Max_cycle;Signal;HPM_P1;HPM_P2
2023/07/20 00:01:30;;;;;;;;;;;;;;;21.72;62.52;100390.09;107640;1253;99269;-62
2023/07/20 00:04:16;;;;;;;;;;;;;;;21.72;62.33;100389.79;107513;1251;112605;-63
2023/07/20 00:06:45;;;;;;;;;;;;;;;21.72;62.11;100386.59;107513;1251;108809;-60
2023/07/20 00:09:13;;;;;;;;;;;;;;;21.73;62.13;100386.36;107479;1251;108616;-61
2023/07/20 00:11:48;;;;;;;;;;;;;;;21.76;61.99;100384.57;107449;1251;99086;-61
2023/07/20 00:14:16;;;;;;;;;;;;;;;21.77;62.20;100380.73;107491;1251;99169;-60
2023/07/20 00:16:46;;;;;;;;;;;;;;;21.78;62.25;100382.20;107481;1251;112475;-61
2023/07/20 00:19:15;;;;;;;;;;;;;;;21.78;61.97;100378.96;107557;1250;108787;-61
2023/07/20 00:21:44;;;;;;;;;;;;;;;21.78;61.77;100381.16;107530;1251;108609;-61
2023/07/20 00:24:12;;;;;;;;;;;;;;;21.78;61.65;100376.50;107537;1251;99179;-61
2023/07/20 00:26:41;;;;;;;;;;;;;;;21.78;61.71;100364.68;107537;1250;99046;-60
2023/07/20 00:29:09;;;;;;;;;;;;;;;21.77;61.65;100361.03;107641;1250;112294;-61
2023/07/20 00:31:37;;;;;;;;;;;;;;;21.74;61.65;100355.56;107539;1251;109866;-60
2023/07/20 00:34:06;;;;;;;;;;;;;;;21.71;61.85;100347.67;107575;1254;107771;-60
2023/07/20 00:36:34;;;;;;;;;;;;;;;21.69;61.70;100346.80;107656;1251;99288;-60
2023/07/20 00:39:03;;;;;;;;;;;;;;;21.70;61.78;100351.60;107545;1251;99084;-61
2023/07/20 00:41:32;;;;;;;;;;;;;;;21.68;62.08;100351.19;107453;1252;113015;-62
2023/07/20 00:44:00;;;;;;;;;;;;;;;21.67;61.98;100350.56;107531;1251;108522;-61
2023/07/20 00:46:28;;;;;;;;;;;;;;;21.68;62.08;100344.41;107483;1254;108223;-62
2023/07/20 00:48:56;;;;;;;;;;;;;;;21.68;61.99;100340.79;107459;1251;99287;-60
2023/07/20 00:51:26;;;;;;;;;;;;;;;21.68;61.94;100344.37;107486;1254;99060;-61
2023/07/20 00:53:54;;;;;;;;;;;;;;;21.69;61.88;100343.23;107528;1250;112710;-59
2023/07/20 00:56:22;;;;;;;;;;;;;;;21.70;61.78;100344.52;107626;1251;111292;-61
2023/07/20 00:58:52;;;;;;;;;;;;;;;21.69;61.94;100346.13;107477;1251;107872;-62
2023/07/20 01:01:22;;;;;;;;;;;;;;;21.67;62.22;100344.36;107493;1254;99958;-61
2023/07/20 01:03:50;;;;;;;;;;;;;;;21.65;62.45;100344.80;107533;1251;99249;-61
2023/07/20 01:06:24;;;;;;;;;;;;;;;21.63;62.44;100343.63;107532;1250;113146;-62
2023/07/20 01:08:53;;;;;;;;;;;;;;;21.61;62.26;100340.23;107496;1254;109101;-59
2023/07/20 01:11:21;;;;;;;;;;;;;;;21.58;62.06;100337.30;107573;1253;108239;-60
2023/07/20 01:13:50;;;;;;;;;;;;;;;21.52;62.21;100334.53;107602;1250;99186;-61
2023/07/20 01:16:18;;;;;;;;;;;;;;;21.49;62.15;100331.65;107577;1254;99186;-61
2023/07/20 01:18:46;;;;;;;;;;;;;;;21.44;62.25;100327.39;107526;1254;113576;-60
2023/07/20 01:21:19;;;;;;;;;;;;;;;21.37;63.42;100321.23;107552;1251;109684;-61
2023/07/20 01:24:05;;;;;;;;;;;;;;;21.26;65.22;100313.25;107641;1251;108152;-62
2023/07/20 01:26:39;;;;;;;;;;;;;;;21.13;64.63;100309.48;107604;1251;99173;-60
2023/07/20 01:29:10;;;;;;;;;;;;;;;21.07;64.41;100314.52;107661;1251;99083;-61
2023/07/20 01:31:40;;;;;;;;;;;;;;;21.03;64.22;100308.27;107672;1251;112763;-61
2023/07/20 01:34:12;;;;;;;;;;;;;;;21.01;64.28;100301.93;107631;1251;109617;-62
2023/07/20 01:36:42;;;;;;;;;;;;;;;20.94;64.21;100295.52;107651;1254;108470;-60
2023/07/20 01:39:11;;;;;;;;;;;;;;;20.88;64.44;100296.29;107584;1251;99169;-60
2023/07/20 01:41:40;;;;;;;;;;;;;;;20.83;65.17;100301.23;107622;1253;99199;-60
2023/07/20 01:44:08;;;;;;;;;;;;;;;20.71;65.23;100299.32;107637;1252;113235;-60
2023/07/20 01:46:37;;;;;;;;;;;;;;;20.61;65.25;100298.91;107597;1252;110111;-60
2023/07/20 01:49:05;;;;;;;;;;;;;;;20.59;65.36;100299.05;107547;1251;108824;-60
2023/07/20 01:51:34;;;;;;;;;;;;;;;20.59;66.16;100305.10;107488;1253;99292;-59
2023/07/20 01:54:02;;;;;;;;;;;;;;;20.52;65.87;100304.11;107619;1253;99160;-60
2023/07/20 01:56:30;;;;;;;;;;;;;;;20.49;65.73;100308.40;107608;1253;113050;-61
2023/07/20 01:58:59;;;;;;;;;;;;;;;20.48;65.89;100312.39;107557;1254;109736;-61
2023/07/20 02:01:28;;;;;;;;;;;;;;;20.48;66.40;100315.38;107589;1251;107460;-61
2023/07/20 02:03:56;;;;;;;;;;;;;;;20.46;65.96;100316.94;107584;1250;99151;-60
2023/07/20 02:06:24;;;;;;;;;;;;;;;20.44;65.93;100319.72;107631;1251;97503;-61
2023/07/20 02:08:53;;;;;;;;;;;;;;;20.43;65.79;100324.04;107683;1251;113496;-63
2023/07/20 02:11:21;;;;;;;;;;;;;;;20.41;65.70;100323.92;107666;1251;109537;-62
2023/07/20 02:13:49;;;;;;;;;;;;;;;20.41;65.58;100324.67;107567;1253;108789;-62
2023/07/20 02:16:17;;;;;;;;;;;;;;;20.41;65.82;100330.77;107505;1251;99187;-63
2023/07/20 02:18:47;;;;;;;;;;;;;;;20.37;65.72;100332.59;107665;1251;99156;-62
2023/07/20 02:21:15;;;;;;;;;;;;;;;20.33;66.13;100334.73;107641;1251;112633;-61
2023/07/20 02:23:44;;;;;;;;;;;;;;;20.30;65.85;100333.69;107521;1251;109304;-61
2023/07/20 02:26:13;;;;;;;;;;;;;;;20.31;65.90;100332.55;107603;1251;108174;-60
2023/07/20 02:28:41;;;;;;;;;;;;;;;20.35;66.04;100332.46;107554;1251;99198;-61
2023/07/20 02:31:09;;;;;;;;;;;;;;;20.38;66.06;100335.14;107603;1252;99208;-61
2023/07/20 02:33:37;;;;;;;;;;;;;;;20.38;66.05;100338.43;107582;1251;113254;-62
2023/07/20 02:36:05;;;;;;;;;;;;;;;20.37;65.83;100344.02;107597;1254;108817;-60
2023/07/20 02:38:33;;;;;;;;;;;;;;;20.36;66.20;100344.89;107637;1251;107228;-59
2023/07/20 02:41:02;;;;;;;;;;;;;;;20.36;66.30;100347.96;107554;1254;99291;-62
2023/07/20 02:43:30;;;;;;;;;;;;;;;20.37;66.08;100351.88;107625;1254;99218;-60
2023/07/20 02:45:58;;;;;;;;;;;;;;;20.39;66.15;100360.16;107500;1251;113297;-60
2023/07/20 02:48:27;;;;;;;;;;;;;;;20.38;66.02;100352.64;107666;1251;109903;-61
2023/07/20 02:50:56;;;;;;;;;;;;;;;20.38;65.87;100348.52;107514;1251;107610;-60
2023/07/20 02:53:24;;;;;;;;;;;;;;;20.39;65.94;100342.51;107446;1251;99313;-62
2023/07/20 02:55:52;;;;;;;;;;;;;;;20.40;66.50;100336.52;107608;1251;99096;-59
2023/07/20 02:58:20;;;;;;;;;;;;;;;20.37;67.34;100332.95;107554;1254;112704;-61
2023/07/20 03:00:48;;;;;;;;;;;;;;;20.36;67.16;100338.17;107592;1254;109677;-62
2023/07/20 03:03:16;;;;;;;;;;;;;;;20.38;67.38;100344.39;107641;1251;108008;-64
2023/07/20 03:05:45;;;;;;;;;;;;;;;20.35;68.02;100350.62;107508;1254;99173;-62
2023/07/20 03:08:13;;;;;;;;;;;;;;;20.25;68.16;100356.64;107603;1251;99083;-61
2023/07/20 03:10:41;;;;;;;;;;;;;;;20.20;68.40;100358.77;107535;1251;112217;-62
2023/07/20 03:13:10;;;;;;;;;;;;;;;20.21;68.38;100354.59;107551;1251;108996;-62
2023/07/20 03:15:39;;;;;;;;;;;;;;;20.25;68.54;100355.63;107530;1251;108724;-61
2023/07/20 03:18:07;;;;;;;;;;;;;;;20.30;68.45;100357.89;107503;1250;99194;-60
2023/07/20 03:20:36;;;;;;;;;;;;;;;20.36;68.45;100357.42;107622;1251;99944;-60
2023/07/20 03:23:04;;;;;;;;;;;;;;;20.42;68.27;100359.39;107613;1251;113513;-61
2023/07/20 03:25:33;;;;;;;;;;;;;;;20.47;68.31;100359.60;107566;1255;108499;-61
2023/07/20 03:28:02;;;;;;;;;;;;;;;20.53;68.30;100365.14;107591;1254;107091;-59
2023/07/20 03:30:30;;;;;;;;;;;;;;;20.60;68.47;100371.95;107495;1251;99201;-62
2023/07/20 03:32:59;;;;;;;;;;;;;;;20.68;68.37;100380.26;107613;1254;99100;-60
2023/07/20 03:35:27;;;;;;;;;;;;;;;20.72;68.31;100389.29;107582;1254;113613;-61
2023/07/20 03:37:55;;;;;;;;;;;;;;;20.80;67.97;100390.48;107659;1251;109859;-61
2023/07/20 03:40:24;;;;;;;;;;;;;;;20.86;67.73;100385.71;107623;1251;108645;-63
2023/07/20 03:42:55;;;;;;;;;;;;;;;20.92;67.51;100375.86;107585;1254;99291;-63
2023/07/20 03:45:23;;;;;;;;;;;;;;;20.95;67.42;100383.34;107531;1251;99169;-61
2023/07/20 03:47:52;;;;;;;;;;;;;;;21.00;67.44;100384.20;107514;1251;112796;-62
2023/07/20 03:50:20;;;;;;;;;;;;;;;21.05;67.30;100379.27;107583;1251;109519;-62
2023/07/20 03:52:49;;;;;;;;;;;;;;;21.09;67.23;100375.14;107584;1251;106644;-61
2023/07/20 03:55:17;;;;;;;;;;;;;;;21.13;67.18;100372.72;107571;1251;99054;-61
2023/07/20 03:57:45;;;;;;;;;;;;;;;21.19;67.20;100373.00;107549;1251;99265;-63
2023/07/20 04:00:18;;;;;;;;;;;;;;;21.22;67.02;100371.08;107559;1251;113458;-65
2023/07/20 04:03:03;;;;;;;;;;;;;;;21.26;66.86;100367.41;107394;1251;108561;-61
2023/07/20 04:05:31;;;;;;;;;;;;;;;21.31;66.64;100369.13;107475;1251;108318;-63
2023/07/20 04:08:07;;;;;;;;;;;;;;;21.37;66.41;100374.73;107571;1250;99263;-67
2023/07/20 04:10:38;;;;;;;;;;;;;;;21.41;66.38;100373.83;107482;1251;99174;-62
2023/07/20 04:13:06;;;;;;;;;;;;;;;21.44;66.35;100369.86;107643;1252;112969;-62
2023/07/20 04:15:35;;;;;;;;;;;;;;;21.47;66.48;100370.94;107613;1254;109127;-61
2023/07/20 04:18:03;;;;;;;;;;;;;;;21.47;66.17;100375.69;107589;1256;108196;-60
2023/07/20 04:20:31;;;;;;;;;;;;;;;21.47;66.11;100372.04;107584;1251;99556;-61
2023/07/20 04:23:00;;;;;;;;;;;;;;;21.52;66.27;100377.35;107584;1256;99282;-60
2023/07/20 04:25:38;;;;;;;;;;;;;;;21.55;66.56;100380.13;107623;1251;112349;-59
2023/07/20 04:28:08;;;;;;;;;;;;;;;21.55;66.30;100377.04;107594;1251;109013;-63
2023/07/20 04:30:48;;;;;;;;;;;;;;;21.46;66.38;100379.36;107615;1251;107738;-60
2023/07/20 04:33:18;;;;;;;;;;;;;;;21.41;66.37;100387.23;107541;1250;99706;-61
2023/07/20 04:35:49;;;;;;;;;;;;;;;21.44;66.82;100390.07;107616;1253;99118;-61
2023/07/20 04:38:20;;;;;;;;;;;;;;;21.50;66.71;100396.55;107640;1253;113267;-61
2023/07/20 04:40:55;;;;;;;;;;;;;;;21.49;66.79;100399.27;107577;1254;110002;-64
2023/07/20 04:43:23;;;;;;;;;;;;;;;21.44;67.16;100400.51;107608;1254;108608;-64
2023/07/20 04:45:52;;;;;;;;;;;;;;;21.38;66.60;100394.94;107522;1251;99329;-63
2023/07/20 04:48:20;;;;;;;;;;;;;;;21.43;66.70;100392.39;107533;1254;99103;-63
2023/07/20 04:50:52;;;;;;;;;;;;;;;21.51;66.78;100394.41;107670;1253;112721;-61
2023/07/20 04:53:20;;;;;;;;;;;;;;;21.58;66.70;100388.48;107624;1254;108230;-61
2023/07/20 04:55:54;;;;;;;;;;;;;;;21.66;66.54;100389.95;107622;1254;108552;-59
2023/07/20 04:58:25;;;;;;;;;;;;;;;21.72;66.41;100390.41;107572;1254;99273;-62
2023/07/20 05:00:54;;;;;;;;;;;;;;;21.77;66.19;100395.48;107490;1252;99254;-63
2023/07/20 05:03:23;;;;;;;;;;;;;;;21.83;66.32;100391.95;107570;1254;112495;-62
2023/07/20 05:05:51;;;;;;;;;;;;;;;21.87;66.34;100387.55;107669;1251;108643;-62
2023/07/20 05:08:22;;;;;;;;;;;;;;;21.87;66.12;100389.82;107604;1251;108195;-61
2023/07/20 05:10:50;;;;;;;;;;;;;;;21.88;66.24;100391.70;107597;1254;99047;-61
2023/07/20 05:13:20;;;;;;;;;;;;;;;21.85;66.21;100392.02;107512;1254;99176;-62
2023/07/20 05:15:52;;;;;;;;;;;;;;;21.88;66.23;100389.94;107584;1251;112254;-62
2023/07/20 05:18:28;;;;;;;;;;;;;;;21.95;66.61;100391.48;107596;1251;110440;-62
2023/07/20 05:20:59;;;;;;;;;;;;;;;21.98;66.79;100387.67;107571;1252;107761;-62
2023/07/20 05:23:27;;;;;;;;;;;;;;;22.01;66.51;100386.10;107514;1254;99197;-60
2023/07/20 05:25:58;;;;;;;;;;;;;;;22.07;66.59;100377.59;107609;1251;99166;-62
2023/07/20 05:28:27;;;;;;;;;;;;;;;22.10;66.41;100378.23;107553;1254;112361;-61
2023/07/20 05:30:55;;;;;;;;;;;;;;;22.14;66.56;100377.73;107591;1252;109746;-61
2023/07/20 05:33:24;;;;;;;;;;;;;;;22.20;66.21;100377.48;107626;1254;107678;-60
2023/07/20 05:35:53;;;;;;;;;;;;;;;22.23;66.06;100374.68;107599;1251;99175;-63
2023/07/20 05:38:22;;;;;;;;;;;;;;;22.27;66.07;100376.29;107470;1251;99227;-60
2023/07/20 05:40:50;;;;;;;;;;;;;;;22.31;65.96;100376.52;107639;1251;112663;-61
2023/07/20 05:43:18;;;;;;;;;;;;;;;22.30;66.02;100372.05;107615;1254;109190;-61
2023/07/20 05:45:47;;;;;;;;;;;;;;;22.32;66.10;100374.81;107506;1252;108272;-62
2023/07/20 05:48:16;;;;;;;;;;;;;;;22.35;65.98;100381.15;107551;1256;99067;-60
2023/07/20 05:50:44;;;;;;;;;;;;;;;22.39;65.92;100381.05;107639;1252;99323;-60
2023/07/20 05:53:13;;;;;;;;;;;;;;;22.42;65.64;100379.48;107572;1253;113060;-61
2023/07/20 05:55:41;;;;;;;;;;;;;;;22.47;65.84;100386.02;107541;1251;109532;-61
2023/07/20 05:58:09;;;;;;;;;;;;;;;22.49;65.73;100387.60;107530;1252;107846;-61
2023/07/20 06:00:38;;;;;;;;;;;;;;;22.50;65.72;100385.56;107507;1252;99349;-61
2023/07/20 06:03:09;;;;;;;;;;;;;;;22.45;65.62;100384.52;107630;1251;99192;-60
2023/07/20 06:05:37;;;;;;;;;;;;;;;22.43;65.38;100384.24;107631;1253;114638;-62
2023/07/20 06:08:05;;;;;;;;;;;;;;;22.45;65.89;100382.33;107622;1254;109323;-62
2023/07/20 06:10:33;;;;;;;;;;;;;;;22.44;65.73;100381.20;107553;1251;108090;-65
2023/07/20 06:13:05;;;;;;;;;;;;;;;22.45;65.86;100376.50;107503;1251;99050;-61
2023/07/20 06:15:36;;;;;;;;;;;;;;;22.52;65.99;100377.88;107666;1251;99048;-61
2023/07/20 06:18:04;;;;;;;;;;;;;;;22.54;65.97;100378.45;107535;1251;113119;-62
2023/07/20 06:20:32;;;;;;;;;;;;;;;22.61;66.19;100382.00;107581;1254;109719;-60
2023/07/20 06:23:00;;;;;;;;;;;;;;;22.70;66.47;100375.08;107555;1253;107792;-64
2023/07/20 06:25:29;;;;;;;;;;;;;;;22.74;66.00;100368.37;107465;1254;98409;-65
2023/07/20 06:27:57;;;;;;;;;;;;;;;22.78;65.68;100370.79;107651;1251;99064;-60
2023/07/20 06:30:26;;;;;;;;;;;;;;;22.84;65.78;100369.58;107553;1256;113605;-62
2023/07/20 06:32:54;;;;;;;;;;;;;;;22.89;65.67;100370.63;107577;1254;109798;-61
2023/07/20 06:35:23;;;;;;;;;;;;;;;22.96;66.14;100366.45;107421;1254;107953;-62
2023/07/20 06:37:51;;;;;;;;;;;;;;;23.03;65.97;100367.64;107580;1251;99143;-60
2023/07/20 06:40:21;;;;;;;;;;;;;;;23.09;65.66;100371.16;107567;1252;99941;-61
2023/07/20 06:42:52;;;;;;;;;;;;;;;23.16;65.57;100373.95;107551;1253;112866;-61
2023/07/20 06:45:23;;;;;;;;;;;;;;;23.18;65.05;100375.46;107600;1253;108844;-61
2023/07/20 06:47:51;;;;;;;;;;;;;;;23.15;64.56;100375.86;107544;1253;109296;-60
2023/07/20 06:50:19;;;;;;;;;;;;;;;23.15;64.86;100378.21;107520;1255;99218;-61
2023/07/20 06:52:48;;;;;;;;;;;;;;;23.19;64.89;100383.17;107584;1252;99070;-60
2023/07/20 06:55:17;;;;;;;;;;;;;;;23.26;64.88;100386.40;107652;1253;111645;-61
2023/07/20 06:57:51;;;;;;;;;;;;;;;23.33;64.57;100391.55;107589;1251;109151;-61
2023/07/20 07:00:20;;;;;;;;;;;;;;;23.34;63.97;100392.51;107547;1254;106741;-61
2023/07/20 07:02:48;;;;;;;;;;;;;;;23.38;63.96;100387.08;107575;1254;99168;-61
2023/07/20 07:05:18;;;;;;;;;;;;;;;23.44;63.94;100371.92;107579;1251;99165;-61
2023/07/20 07:07:48;;;;;;;;;;;;;;;23.53;63.81;100369.46;107588;1253;113912;-60
2023/07/20 07:10:18;;;;;;;;;;;;;;;23.60;63.66;100369.77;107651;1255;109929;-60
2023/07/20 07:12:46;;;;;;;;;;;;;;;23.61;63.02;100366.02;107574;1251;107910;-61
2023/07/20 07:15:14;;;;;;;;;;;;;;;23.59;62.82;100368.09;107580;1254;99050;-62
2023/07/20 07:17:44;;;;;;;;;;;;;;;23.65;63.46;100367.00;107625;1251;99054;-59
2023/07/20 07:20:12;;;;;;;;;;;;;;;23.73;63.31;100361.17;107576;1253;112993;-61
2023/07/20 07:22:50;;;;;;;;;;;;;;;23.84;63.28;100358.39;107540;1252;109506;-60
2023/07/20 07:25:23;;;;;;;;;;;;;;;23.97;63.26;100359.23;107507;1254;107816;-62
2023/07/20 07:27:52;;;;;;;;;;;;;;;24.05;62.43;100356.25;107619;1254;99193;-63
2023/07/20 07:30:21;;;;;;;;;;;;;;;24.10;62.36;100357.21;107519;1254;99157;-63
2023/07/20 07:32:49;;;;;;;;;;;;;;;24.19;62.52;100355.39;107599;1252;113257;-61
2023/07/20 07:35:17;;;;;;;;;;;;;;;24.27;61.95;100351.23;107630;1251;110126;-61
2023/07/20 07:37:46;;;;;;;;;;;;;;;24.34;61.57;100355.20;107621;1252;108123;-62
2023/07/20 07:40:34;;;;;;;;;;;;;;;24.42;61.63;100352.30;107612;1254;99241;-62
2023/07/20 07:43:03;;;;;;;;;;;;;;;24.49;61.21;100344.50;107595;1254;99052;-61
2023/07/20 07:45:35;;;;;;;;;;;;;;;24.58;60.83;100349.38;107611;1254;112995;-61
2023/07/20 07:48:05;;;;;;;;;;;;;;;24.66;60.58;100355.20;107642;1254;109409;-63
2023/07/20 07:50:34;;;;;;;;;;;;;;;24.74;60.03;100358.94;107678;1251;107811;-61
2023/07/20 07:53:02;;;;;;;;;;;;;;;24.79;59.32;100361.92;107623;1251;99166;-63
2023/07/20 07:55:31;;;;;;;;;;;;;;;24.85;59.48;100360.97;107681;1251;99220;-62
2023/07/20 07:57:59;;;;;;;;;;;;;;;24.95;59.78;100359.45;107673;1251;112027;-61
2023/07/20 08:00:27;;;;;;;;;;;;;;;25.06;59.23;100357.16;107590;1253;109831;-61
2023/07/20 08:02:55;;;;;;;;;;;;;;;25.15;59.08;100352.45;106648;1253;1308753;-61
2023/07/20 08:05:24;;;;;;;;;;;;;;;25.16;58.00;100362.27;107599;1251;99179;-62
2023/07/20 08:07:54;;;;;;;;;;;;;;;25.19;57.81;100361.02;107664;1251;99294;-63
2023/07/20 08:10:28;;;;;;;;;;;;;;;25.26;57.70;100359.67;107491;1253;113540;-63
2023/07/20 08:12:57;;;;;;;;;;;;;;;25.37;57.37;100362.15;107642;1254;109733;-61
2023/07/20 08:15:25;;;;;;;;;;;;;;;25.49;56.80;100363.19;107607;1250;108634;-62
2023/07/20 08:17:53;;;;;;;;;;;;;;;25.65;56.64;100360.55;107615;1251;99167;-61
2023/07/20 08:20:26;;;;;;;;;;;;;;;25.77;56.14;100360.45;107652;1251;99081;-61
2023/07/20 08:22:55;;;;;;;;;;;;;;;25.85;56.16;100361.69;107657;1251;112848;-63
2023/07/20 08:25:23;;;;;;;;;;;;;;;25.90;55.05;100356.92;107587;1254;109450;-60
2023/07/20 08:27:52;;;;;;;;;;;;;;;25.91;54.93;100353.58;107611;1255;108258;-60
2023/07/20 08:30:23;;;;;;;;;;;;;;;26.05;54.30;100355.80;107651;1256;99329;-61
2023/07/20 08:32:51;;;;;;;;;;;;;;;26.19;54.65;100351.44;107711;1251;99301;-63
2023/07/20 08:35:19;;;;;;;;;;;;;;;26.35;54.34;100358.09;107577;1254;113521;-61
2023/07/20 08:37:50;;;;;;;;;;;;;;;26.53;53.03;100354.95;107600;1254;109374;-63
2023/07/20 08:40:20;;;;;;;;;;;;;;;26.71;53.27;100353.42;107541;1254;107994;-61
2023/07/20 08:42:49;;;;;;;;;;;;;;;26.87;52.17;100347.33;107555;1253;99185;-62
2023/07/20 08:45:18;;;;;;;;;;;;;;;27.00;50.92;100347.83;107662;1253;99217;-62
2023/07/20 08:47:49;;;;;;;;;;;;;;;27.05;50.99;100341.80;107628;1254;112566;-62
2023/07/20 08:50:18;;;;;;;;;;;;;;;27.03;50.52;100343.23;107642;1256;109911;-62
2023/07/20 08:52:46;;;;;;;;;;;;;;;27.09;49.77;100347.83;107554;1251;109461;-62
2023/07/20 08:55:14;;;;;;;;;;;;;;;27.11;49.73;100348.96;107577;1251;99079;-63
2023/07/20 08:57:45;;;;;;;;;;;;;;;27.19;49.96;100353.52;107611;1254;99142;-64
2023/07/20 09:00:14;;;;;;;;;;;;;;;27.25;49.92;100355.98;107635;1256;111994;-63
2023/07/20 09:02:45;;;;;;;;;;;;;;;27.38;50.01;100358.99;107651;1252;109837;-62
2023/07/20 09:05:14;;;;;;;;;;;;;;;27.54;49.95;100354.34;107531;1255;108592;-63
2023/07/20 09:07:42;;;;;;;;;;;;;;;27.72;49.76;100348.61;107610;1253;99182;-61
2023/07/20 09:10:11;;;;;;;;;;;;;;;27.92;49.67;100345.10;107616;1254;99182;-63
2023/07/20 09:12:40;;;;;;;;;;;;;;;28.15;49.87;100339.33;107553;1254;113119;-62
2023/07/20 09:15:10;;;;;;;;;;;;;;;28.41;48.89;100339.08;107548;1252;109703;-61
2023/07/20 09:17:39;;;;;;;;;;;;;;;28.60;47.48;100336.87;107526;1256;108638;-60
2023/07/20 09:20:10;;;;;;;;;;;;;;;28.77;47.57;100335.05;107564;1253;99163;-63
2023/07/20 09:22:42;;;;;;;;;;;;;;;28.98;46.72;100332.56;107633;1253;99183;-62
2023/07/20 09:25:11;;;;;;;;;;;;;;;29.27;46.25;100328.23;107592;1255;112543;-62
2023/07/20 09:27:41;;;;;;;;;;;;;;;29.60;44.58;100331.55;107616;1254;108566;-61
2023/07/20 09:30:13;;;;;;;;;;;;;;;29.89;44.34;100329.48;107573;1254;107979;-62
2023/07/20 09:32:58;;;;;;;;;;;;;;;30.22;43.08;100332.70;107636;1253;99249;-61
2023/07/20 09:35:27;;;;;;;;;;;;;;;30.51;42.51;100332.77;107581;1254;99172;-62
2023/07/20 09:38:10;;;;;;;;;;;;;;;30.87;42.13;100334.46;107528;1254;113594;-62
2023/07/20 09:40:42;;;;;;;;;;;;;;;31.21;41.55;100337.91;107575;1254;109857;-62
2023/07/20 09:43:15;;;;;;;;;;;;;;;31.55;41.45;100333.22;107618;1254;106741;-60
2023/07/20 09:45:46;;;;;;;;;;;;;;;31.87;40.44;100326.77;107602;1254;99145;-63
2023/07/20 09:48:21;;;;;;;;;;;;;;;32.15;39.46;100321.65;107601;1254;99134;-61
2023/07/20 09:50:53;;;;;;;;;;;;;;;32.38;38.25;100324.61;107555;1254;112193;-63
2023/07/20 09:53:24;;;;;;;;;;;;;;;32.56;38.65;100325.05;107602;1254;108506;-61
2023/07/20 09:55:52;;;;;;;;;;;;;;;32.84;38.44;100325.67;107595;1255;109050;-62
2023/07/20 09:58:21;;;;;;;;;;;;;;;33.13;37.57;100325.09;107570;1255;99288;-65
2023/07/20 10:00:51;;;;;;;;;;;;;;;33.33;37.25;100317.50;107637;1251;99220;-61
2023/07/20 10:03:22;;;;;;;;;;;;;;;33.71;38.15;100317.22;107576;1251;112348;-62
2023/07/20 10:05:58;;;;;;;;;;;;;;;34.09;36.48;100317.05;107594;1251;108842;-62
2023/07/20 10:08:29;;;;;;;;;;;;;;;34.34;34.69;100311.91;107641;1251;108582;-61
2023/07/20 10:11:02;;;;;;;;;;;;;;;34.49;34.39;100309.53;107593;1254;99179;-61
2023/07/20 10:13:32;;;;;;;;;;;;;;;34.62;34.56;100312.35;107646;1254;99173;-63
2023/07/20 10:16:06;;;;;;;;;;;;;;;34.92;34.33;100315.43;107603;1254;113322;-60
2023/07/20 10:18:38;;;;;;;;;;;;;;;35.28;33.03;100311.48;107619;1254;109871;-62
2023/07/20 10:21:07;;;;;;;;;;;;;;;35.76;32.06;100307.91;107671;1251;106995;-62
2023/07/20 10:23:39;;;;;;;;;;;;;;;36.25;32.06;100302.14;107574;1251;99159;-61
2023/07/20 10:26:08;;;;;;;;;;;;;;;36.78;31.59;100290.55;107615;1251;99198;-61
2023/07/20 10:28:38;;;;;;;;;;;;;;;37.05;31.77;100287.52;107575;1251;112431;-62
2023/07/20 10:31:10;;;;;;;;;;;;;;;37.44;31.01;100288.86;107530;1251;110997;-63
2023/07/20 10:33:39;;;;;;;;;;;;;;;37.87;30.83;100284.96;107566;1251;109959;-63
2023/07/20 10:36:12;;;;;;;;;;;;;;;38.39;30.21;100272.09;107528;1251;99388;-60
2023/07/20 10:38:47;;;;;;;;;;;;;;;38.84;29.87;100270.89;107631;1256;99060;-62
2023/07/20 10:41:16;;;;;;;;;;;;;;;39.33;29.07;100266.92;107529;1253;112562;-62
2023/07/20 10:43:48;;;;;;;;;;;;;;;39.67;26.41;100262.65;107597;1254;109976;-61
2023/07/20 10:46:35;;;;;;;;;;;;;;;39.69;26.54;100257.63;107646;1251;107293;-59
2023/07/20 10:49:05;;;;;;;;;;;;;;;40.02;27.27;100251.52;107509;1253;99163;-62
2023/07/20 10:51:44;;;;;;;;;;;;;;;40.51;27.25;100252.98;107641;1254;99147;-61
2023/07/20 10:54:18;;;;;;;;;;;;;;;40.91;26.25;100248.28;107605;1254;113241;-63
2023/07/20 10:56:49;;;;;;;;;;;;;;;41.18;25.54;100242.67;107615;1256;109704;-62
2023/07/20 10:59:23;;;;;;;;;;;;;;;41.46;23.21;100239.35;107593;1256;108712;-61
2023/07/20 11:01:55;;;;;;;;;;;;;;;41.50;24.44;100237.70;107570;1254;99182;-61
2023/07/20 11:04:39;;;;;;;;;;;;;;;41.85;23.73;100233.13;107630;1254;99044;-60
2023/07/20 11:07:08;;;;;;;;;;;;;;;42.43;24.05;100232.48;107684;1251;113472;-61
2023/07/20 11:09:36;;;;;;;;;;;;;;;42.74;22.26;100229.27;107586;1251;109568;-59
2023/07/20 11:12:14;;;;;;;;;;;;;;;42.50;20.64;100226.60;107590;1251;108083;-60
2023/07/20 11:14:43;;;;;;;;;;;;;;;41.87;22.70;100224.27;107663;1251;99060;-62
2023/07/20 11:17:14;;;;;;;;;;;;;;;41.87;22.43;100225.23;107598;1251;99269;-66
2023/07/20 11:19:43;;;;;;;;;;;;;;;41.89;22.54;100222.83;107558;1251;112192;-62
2023/07/20 11:22:16;;;;;;;;;;;;;;;41.97;22.43;100217.70;107568;1251;110187;-62
2023/07/20 11:24:44;;;;;;;;;;;;;;;42.19;22.62;100211.55;107699;1256;108530;-62
2023/07/20 11:27:15;;;;;;;;;;;;;;;42.43;21.62;100216.02;107681;1251;99169;-63
2023/07/20 11:29:45;;;;;;;;;;;;;;;42.46;21.39;100203.40;107589;1251;99166;-61
2023/07/20 11:32:20;;;;;;;;;;;;;;;42.27;21.78;100204.25;107547;1251;113014;-62
2023/07/20 11:34:48;;;;;;;;;;;;;;;42.53;21.75;100200.66;107618;1251;109811;-64
2023/07/20 11:37:19;;;;;;;;;;;;;;;42.86;21.20;100202.88;107525;1251;107638;-63
2023/07/20 11:39:48;;;;;;;;;;;;;;;42.94;20.75;100192.85;107571;1254;99200;-63
2023/07/20 11:42:19;;;;;;;;;;;;;;;42.90;21.06;100195.43;107599;1251;99144;-64
2023/07/20 11:44:51;;;;;;;;;;;;;;;42.79;21.56;100188.66;107512;1254;112993;-62
2023/07/20 11:47:20;;;;;;;;;;;;;;;42.83;20.86;100189.02;107646;1254;110200;-68
2023/07/20 11:49:54;;;;;;;;;;;;;;;42.50;20.96;100184.60;107595;1251;109001;-65
2023/07/20 11:52:23;;;;;;;;;;;;;;;42.16;21.36;100184.58;107572;1256;99345;-62
2023/07/20 11:54:52;;;;;;;;;;;;;;;41.96;21.51;100180.14;107628;1251;99041;-61
2023/07/20 11:57:20;;;;;;;;;;;;;;;41.56;21.23;100177.17;107584;1251;113419;-63
2023/07/20 12:00:04;;;;;;;;;;;;;;;41.39;20.26;100167.66;107540;1254;109157;-64
2023/07/20 12:02:35;;;;;;;;;;;;;;;41.44;20.77;100160.69;107542;1254;108141;-61
2023/07/20 12:05:08;;;;;;;;;;;;;;;41.24;21.04;100159.83;107570;1255;99280;-63
2023/07/20 12:07:39;;;;;;;;;;;;;;;41.23;21.50;100163.73;107673;1251;99195;-63
2023/07/20 12:10:11;;;;;;;;;;;;;;;41.04;21.73;100158.98;107421;1251;113018;-67
2023/07/20 12:12:40;;;;;;;;;;;;;;;40.45;22.27;100159.23;107610;1254;109319;-64
2023/07/20 12:15:30;;;;;;;;;;;;;;;39.85;22.38;100161.60;107563;1254;109370;-62
2023/07/20 12:18:02;;;;;;;;;;;;;;;39.22;23.97;100164.85;107588;1251;99100;-62
2023/07/20 12:20:32;;;;;;;;;;;;;;;39.06;24.09;100162.91;107556;1251;99221;-63
2023/07/20 12:23:02;;;;;;;;;;;;;;;39.01;24.37;100159.34;107619;1251;112899;-62
2023/07/20 12:25:51;;;;;;;;;;;;;;;39.13;24.38;100162.02;107567;1256;110390;-62
2023/07/20 12:28:20;;;;;;;;;;;;;;;39.43;24.13;100162.23;107594;1252;108264;-67
2023/07/20 12:30:56;;;;;;;;;;;;;;;39.69;23.38;100159.27;107621;1251;99191;-60
2023/07/20 12:33:25;;;;;;;;;;;;;;;39.82;23.59;100158.30;107666;1252;99243;-62
2023/07/20 12:35:55;;;;;;;;;;;;;;;40.13;23.49;100158.38;107567;1256;113954;-61